Time;durP1;ratioP1;P1;durP2;ratioP2;P2;SDS_P1;SDS_P2;PMS_P1;PMS_P2;Temp;Humidity;BMP_temperature;BMP_pressure;BME280_temperature;BME280_humidity;BME280_pressure;Samples;Min_cycle;Max_cycle;Signal;HPM_P1;HPM_P2
2023/04/01 00:00:14;;;;;;;1.50;0.60;;;;;;;9.63;57.56;96376.53;6150982;28;20240;-45
2023/04/01 00:03:17;;;;;;;2.03;0.60;;;;;;;9.54;57.29;96374.41;6147368;28;20279;-47
2023/04/01 00:06:19;;;;;;;3.13;0.63;;;;;;;9.74;56.45;96391.41;6147386;28;20215;-48
2023/04/01 00:09:21;;;;;;;1.80;0.60;;;;;;;9.92;55.40;96380.22;6146060;28;20242;-44
2023/04/01 00:12:24;;;;;;;2.67;0.87;;;;;;;9.94;55.64;96380.72;6129503;28;20266;-45
2023/04/01 00:15:27;;;;;;;3.30;0.70;;;;;;;9.70;56.82;96385.81;6163203;28;20846;-45
2023/04/01 00:18:29;;;;;;;0.70;0.50;;;;;;;9.85;55.61;96387.66;6144998;28;20730;-45
2023/04/01 00:21:31;;;;;;;1.30;0.70;;;;;;;9.75;55.89;96390.34;6146220;28;20234;-44
2023/04/01 00:24:33;;;;;;;1.33;0.77;;;;;;;9.70;56.36;96393.78;6147636;28;20234;-47
2023/04/01 00:27:35;;;;;;;2.27;0.60;;;;;;;9.65;56.61;96369.06;6148458;28;20245;-46
2023/04/01 00:30:38;;;;;;;2.70;0.77;;;;;;;9.75;56.34;96353.94;6146118;28;20242;-46
2023/04/01 00:33:41;;;;;;;3.53;0.60;;;;;;;9.75;56.24;96355.75;6145563;28;20336;-45
2023/04/01 00:36:43;;;;;;;0.67;0.50;;;;;;;9.71;55.91;96360.06;6138654;28;20239;-47
2023/04/01 00:39:45;;;;;;;1.30;0.70;;;;;;;9.61;57.22;96349.44;6138971;28;20382;-46
2023/04/01 00:42:48;;;;;;;3.00;1.07;;;;;;;9.62;57.25;96356.34;6128684;28;20239;-45
2023/04/01 00:45:50;;;;;;;1.20;0.50;;;;;;;9.40;58.13;96352.09;6144307;28;20330;-47
2023/04/01 00:48:55;;;;;;;1.47;0.83;;;;;;;9.18;59.53;96355.00;6144542;28;20243;-47
2023/04/01 00:52:01;;;;;;;4.70;0.80;;;;;;;9.23;59.09;96343.59;6147351;28;20330;-45
2023/04/01 00:55:07;;;;;;;2.17;0.73;;;;;;;9.20;58.79;96341.47;6146128;28;20253;-47
2023/04/01 00:58:14;;;;;;;2.53;0.70;;;;;;;9.28;58.39;96355.03;6129514;28;20234;-49
2023/04/01 01:01:17;;;;;;;1.57;0.60;;;;;;;9.21;59.18;96365.13;6145187;28;20251;-49
2023/04/01 01:04:30;;;;;;;1.53;0.80;;;;;;;9.30;58.11;96344.91;6127887;28;20378;-45
2023/04/01 01:07:32;;;;;;;4.30;0.87;;;;;;;9.47;57.35;96341.19;6150050;28;20247;-48
2023/04/01 01:10:38;;;;;;;2.87;1.03;;;;;;;9.44;57.85;96353.16;6131546;28;20237;-44
2023/04/01 01:13:53;;;;;;;1.90;0.83;;;;;;;9.27;58.25;96348.13;6128743;28;20230;-46
2023/04/01 01:17:10;;;;;;;3.90;0.83;;;;;;;9.21;58.83;96362.47;6144859;28;20243;-47
2023/04/01 01:20:33;;;;;;;1.63;0.73;;;;;;;9.19;58.91;96332.69;6132191;28;20259;-44
2023/04/01 01:23:56;;;;;;;4.27;0.80;;;;;;;9.54;57.34;96326.56;6153518;28;20311;-49
2023/04/01 01:27:12;;;;;;;0.57;0.50;;;;;;;9.28;59.00;96346.25;6150054;28;20245;-49
2023/04/01 01:31:06;;;;;;;3.37;1.03;;;;;;;9.29;58.39;96334.56;6136941;28;20230;-48
2023/04/01 01:34:21;;;;;;;1.60;0.60;;;;;;;9.11;59.31;96341.19;6100148;29;20262;-49
2023/04/01 01:37:27;;;;;;;1.30;0.67;;;;;;;8.75;59.60;96300.53;6097318;29;20240;-49
2023/04/01 01:40:33;;;;;;;2.00;0.90;;;;;;;9.00;59.84;96321.78;6077885;29;20251;-49
2023/04/01 01:43:44;;;;;;;1.93;0.60;;;;;;;8.90;60.92;96311.16;6078262;29;20240;-44
2023/04/01 01:46:49;;;;;;;3.33;0.93;;;;;;;8.82;61.18;96327.63;6097926;29;20227;-43
2023/04/01 01:49:53;;;;;;;4.20;0.80;;;;;;;8.84;60.88;96319.41;6094201;29;20231;-44
2023/04/01 01:53:11;;;;;;;2.33;0.80;;;;;;;8.84;61.01;96330.00;6094310;29;20258;-44
2023/04/01 01:56:13;;;;;;;3.20;0.93;;;;;;;8.88;61.68;96320.47;6080783;29;20244;-43
2023/04/01 01:59:20;;;;;;;3.50;0.60;;;;;;;8.85;61.20;96328.94;6083861;29;20623;-44
2023/04/01 02:02:25;;;;;;;1.37;0.70;;;;;;;8.78;60.33;96289.38;6097565;29;20244;-44
2023/04/01 02:05:30;;;;;;;2.60;0.87;;;;;;;9.19;60.17;96303.47;6094157;29;20255;-43
2023/04/01 02:09:03;;;;;;;2.63;0.87;;;;;;;9.08;60.40;96293.13;6103912;28;20237;-44
2023/04/01 02:12:09;;;;;;;4.07;1.17;;;;;;;8.89;61.21;96296.28;6131419;28;20234;-43
2023/04/01 02:15:16;;;;;;;3.23;0.80;;;;;;;8.84;60.81;96290.97;6129368;28;20214;-44
2023/04/01 02:18:20;;;;;;;1.70;0.70;;;;;;;8.96;60.05;96280.88;6134786;28;20733;-44
2023/04/01 02:21:25;;;;;;;3.17;0.77;;;;;;;8.84;60.12;96282.22;6142581;28;20317;-43
2023/04/01 02:24:31;;;;;;;1.27;0.60;;;;;;;8.95;60.26;96295.22;6127815;28;20239;-44
2023/04/01 02:27:33;;;;;;;0.90;0.60;;;;;;;9.15;59.23;96310.38;6142743;28;20238;-43
2023/04/01 02:30:38;;;;;;;2.53;0.70;;;;;;;9.14;59.10;96294.72;6127280;28;20236;-43
2023/04/01 02:33:41;;;;;;;4.50;0.97;;;;;;;9.24;58.77;96302.66;6131019;28;20238;-45
2023/04/01 02:36:44;;;;;;;4.33;0.93;;;;;;;9.12;59.11;96286.22;6144270;28;20265;-44
2023/04/01 02:39:46;;;;;;;5.20;1.17;;;;;;;8.84;61.73;96298.16;6143916;28;20253;-43
2023/04/01 02:42:48;;;;;;;3.67;0.80;;;;;;;8.88;60.64;96292.06;6145294;28;20372;-43
2023/04/01 02:45:50;;;;;;;2.00;0.77;;;;;;;8.70;61.16;96314.59;6143874;28;20318;-43
2023/04/01 02:48:53;;;;;;;1.30;0.73;;;;;;;8.48;62.36;96328.09;6126075;28;20263;-43
2023/04/01 02:51:55;;;;;;;2.47;0.80;;;;;;;8.30;63.69;96325.88;6125878;28;20244;-48
2023/04/01 02:54:57;;;;;;;2.57;0.73;;;;;;;8.18;64.37;96331.41;6143760;28;20238;-43
2023/04/01 02:58:00;;;;;;;3.20;1.13;;;;;;;8.24;65.15;96346.28;6150598;28;20248;-43
2023/04/01 03:01:03;;;;;;;2.40;0.70;;;;;;;8.20;65.02;96344.41;6151080;28;20245;-44
2023/04/01 03:04:05;;;;;;;2.87;1.00;;;;;;;8.09;67.28;96342.78;6158061;28;20264;-44
2023/04/01 03:07:09;;;;;;;3.23;1.03;;;;;;;7.83;67.62;96313.47;6142909;28;20250;-44
2023/04/01 03:10:11;;;;;;;2.70;0.90;;;;;;;7.86;67.00;96360.69;6142106;28;20248;-44
2023/04/01 03:13:13;;;;;;;1.63;0.73;;;;;;;7.92;66.66;96343.72;6149296;28;20233;-45
2023/04/01 03:16:17;;;;;;;2.83;0.70;;;;;;;7.88;66.91;96347.16;6131217;28;20233;-43
2023/04/01 03:19:19;;;;;;;4.23;0.70;;;;;;;7.89;66.01;96323.06;6145494;28;20234;-43
2023/04/01 03:22:21;;;;;;;4.77;0.80;;;;;;;8.09;65.49;96346.22;6130293;28;20241;-43
2023/04/01 03:25:23;;;;;;;1.70;0.70;;;;;;;8.02;65.62;96329.72;6149059;28;20257;-44
2023/04/01 03:28:25;;;;;;;1.60;0.70;;;;;;;7.99;65.80;96352.28;6148901;28;20597;-44
2023/04/01 03:31:27;;;;;;;2.50;0.50;;;;;;;8.04;64.73;96358.66;6147325;28;20317;-43
2023/04/01 03:34:31;;;;;;;2.27;0.70;;;;;;;8.28;63.79;96355.31;6146467;28;20714;-44
2023/04/01 03:37:33;;;;;;;3.63;0.80;;;;;;;8.33;63.62;96343.13;6147935;28;20242;-43
2023/04/01 03:40:38;;;;;;;1.77;0.70;;;;;;;8.42;62.19;96317.69;6147986;28;20243;-44
2023/04/01 03:43:40;;;;;;;1.27;0.40;;;;;;;8.65;61.59;96348.28;6147243;28;20234;-46
2023/04/01 03:46:43;;;;;;;1.70;0.60;;;;;;;8.38;63.75;96332.56;6131397;28;20254;-43
2023/04/01 03:49:45;;;;;;;0.87;0.53;;;;;;;8.31;63.53;96338.06;6131592;28;20751;-45
2023/04/01 03:52:47;;;;;;;2.90;0.70;;;;;;;8.43;62.83;96325.41;6161800;28;20237;-44
2023/04/01 03:55:51;;;;;;;1.50;0.70;;;;;;;8.55;62.11;96325.19;6150035;28;20237;-44
2023/04/01 03:58:53;;;;;;;1.27;0.70;;;;;;;8.37;63.63;96325.66;6133132;28;20247;-45
2023/04/01 04:01:55;;;;;;;1.47;0.50;;;;;;;8.33;63.06;96320.06;6154153;28;20843;-44
2023/04/01 04:04:57;;;;;;;1.67;0.60;;;;;;;8.28;63.73;96322.69;6132267;28;20237;-45
2023/04/01 04:08:03;;;;;;;2.53;0.50;;;;;;;8.52;61.63;96315.91;6130832;28;20234;-47
2023/04/01 04:11:06;;;;;;;1.40;0.50;;;;;;;8.49;61.75;96313.75;6129798;28;20234;-46
2023/04/01 04:14:11;;;;;;;2.00;0.77;;;;;;;8.22;64.20;96321.06;6134869;28;20600;-44
2023/04/01 04:17:15;;;;;;;5.33;0.60;;;;;;;8.10;64.41;96328.44;6144687;28;20253;-46
2023/04/01 04:20:18;;;;;;;1.03;0.50;;;;;;;8.09;64.32;96316.25;6144790;28;20699;-44
2023/04/01 04:23:21;;;;;;;1.33;0.60;;;;;;;7.87;63.06;96285.38;6131592;28;20237;-44
2023/04/01 04:26:23;;;;;;;3.07;0.90;;;;;;;8.06;64.25;96332.66;6148624;28;20321;-44
2023/04/01 04:29:30;;;;;;;2.40;0.67;;;;;;;8.36;62.34;96329.34;6128433;28;20343;-44
2023/04/01 04:32:35;;;;;;;1.50;0.60;;;;;;;8.35;62.82;96333.06;6128873;28;20400;-44
2023/04/01 04:35:37;;;;;;;1.37;0.63;;;;;;;8.19;64.03;96338.31;6148190;28;20245;-48
2023/04/01 04:38:39;;;;;;;1.47;0.70;;;;;;;7.98;65.38;96334.78;6129295;28;20271;-45
2023/04/01 04:41:42;;;;;;;1.47;0.60;;;;;;;7.83;65.30;96325.91;6145697;28;20604;-46
2023/04/01 04:44:44;;;;;;;3.80;0.90;;;;;;;7.68;64.64;96300.91;6145572;28;20233;-45
2023/04/01 04:47:46;;;;;;;2.23;0.40;;;;;;;8.41;61.83;96350.59;6129510;28;20277;-44
2023/04/01 04:50:50;;;;;;;2.33;0.60;;;;;;;8.44;62.62;96348.25;6145960;28;20240;-44
2023/04/01 04:53:54;;;;;;;2.53;0.70;;;;;;;8.36;62.16;96359.34;6127570;28;20245;-48
2023/04/01 04:57:05;;;;;;;1.27;0.40;;;;;;;8.35;62.46;96333.06;6128472;28;20299;-45
2023/04/01 05:00:14;;;;;;;2.53;0.63;;;;;;;8.58;61.98;96353.06;6149035;28;20256;-47
2023/04/01 05:03:37;;;;;;;1.77;0.60;;;;;;;8.07;63.51;96305.09;6160328;28;20255;-47
2023/04/01 05:06:40;;;;;;;1.63;0.60;;;;;;;8.41;62.54;96318.75;6143943;28;20318;-47
2023/04/01 05:09:42;;;;;;;1.00;0.57;;;;;;;8.37;62.69;96317.69;6144533;28;20222;-46
2023/04/01 05:12:44;;;;;;;0.97;0.50;;;;;;;8.15;63.20;96286.81;6145866;28;20244;-46
2023/04/01 05:15:51;;;;;;;0.60;0.40;;;;;;;8.45;62.53;96327.81;6144770;28;20236;-49
2023/04/01 05:18:53;;;;;;;1.17;0.33;;;;;;;8.30;63.34;96325.88;6145744;28;20686;-48
2023/04/01 05:21:56;;;;;;;1.50;0.53;;;;;;;8.18;64.31;96343.88;6128055;28;20326;-47
2023/04/01 05:24:58;;;;;;;0.93;0.30;;;;;;;8.15;64.85;96336.44;6144596;28;20381;-48
2023/04/01 05:28:00;;;;;;;1.00;0.50;;;;;;;8.31;63.88;96342.59;6160528;28;20251;-47
2023/04/01 05:31:05;;;;;;;0.87;0.40;;;;;;;8.51;63.06;96348.78;6144617;28;20227;-46
2023/04/01 05:34:13;;;;;;;1.63;0.50;;;;;;;8.50;62.77;96336.56;6144749;28;21820;-46
2023/04/01 05:37:15;;;;;;;2.07;0.50;;;;;;;8.63;63.12;96342.47;6143370;28;20263;-45
2023/04/01 05:40:17;;;;;;;0.63;0.30;;;;;;;8.98;61.44;96339.84;6144916;28;20263;-46
2023/04/01 05:43:19;;;;;;;2.57;0.50;;;;;;;9.19;60.33;96319.41;6158127;28;20337;-45
2023/04/01 05:46:23;;;;;;;1.37;0.60;;;;;;;8.97;62.44;96343.59;6128276;28;20721;-45
2023/04/01 05:49:33;;;;;;;1.00;0.40;;;;;;;8.92;63.15;96361.38;6145065;28;20242;-47
2023/04/01 05:52:37;;;;;;;0.87;0.43;;;;;;;9.05;61.82;96374.13;6143625;28;20316;-48
2023/04/01 05:55:39;;;;;;;1.13;0.40;;;;;;;9.13;62.02;96370.97;6143603;28;20675;-50
2023/04/01 05:58:41;;;;;;;0.70;0.50;;;;;;;9.19;61.91;96387.69;6129323;28;20237;-48
2023/04/01 06:01:44;;;;;;;0.67;0.30;;;;;;;9.20;62.17;96381.31;6134006;28;20239;-50
2023/04/01 06:04:46;;;;;;;0.73;0.50;;;;;;;9.22;62.07;96372.03;6158085;28;20311;-50
2023/04/01 06:07:55;;;;;;;1.50;0.60;;;;;;;9.16;61.64;96345.69;6148304;28;20227;-49
2023/04/01 06:11:01;;;;;;;1.43;0.60;;;;;;;9.38;61.56;96383.47;6142192;28;20618;-49
2023/04/01 06:14:21;;;;;;;0.93;0.50;;;;;;;9.61;59.83;96387.44;6129920;28;20246;-45
2023/04/01 06:17:46;;;;;;;1.77;0.60;;;;;;;9.54;60.30;96379.72;6158191;28;20237;-44
2023/04/01 06:21:10;;;;;;;2.10;0.60;;;;;;;9.50;59.76;96367.22;6126445;28;20322;-45
2023/04/01 06:24:41;;;;;;;0.93;0.50;;;;;;;9.46;60.95;96374.16;6143406;28;20231;-44
2023/04/01 06:28:16;;;;;;;1.43;0.60;;;;;;;9.47;61.43;96384.53;6146971;28;20234;-44
2023/04/01 06:31:43;;;;;;;1.53;0.50;;;;;;;9.53;59.84;96391.44;6164871;28;20260;-46
2023/04/01 06:35:18;;;;;;;1.80;0.57;;;;;;;9.53;61.23;96386.09;6162301;28;20785;-46
2023/04/01 06:38:35;;;;;;;1.93;0.60;;;;;;;9.75;59.13;96375.22;6137220;28;20257;-44
2023/04/01 06:41:53;;;;;;;0.73;0.30;;;;;;;9.82;59.02;96380.25;6125843;28;20229;-45
2023/04/01 06:45:19;;;;;;;2.73;1.00;;;;;;;9.68;60.71;96379.97;6129777;28;20281;-44
2023/04/01 06:49:27;;;;;;;0.80;0.40;;;;;;;9.75;60.85;96377.03;6151203;28;20310;-48
2023/04/01 06:53:16;;;;;;;1.10;0.60;;;;;;;9.93;59.62;96394.31;6133004;28;20240;-45
2023/04/01 06:56:41;;;;;;;0.77;0.40;;;;;;;10.28;57.54;96402.22;6149961;28;20233;-46
2023/04/01 06:59:51;;;;;;;1.57;0.60;;;;;;;10.32;57.49;96440.56;6158998;28;20973;-46
2023/04/01 07:03:07;;;;;;;1.63;0.60;;;;;;;10.20;57.77;96401.97;6146430;28;20238;-45
2023/04/01 07:06:31;;;;;;;0.73;0.50;;;;;;;10.09;59.47;96401.97;6136051;28;20238;-44
2023/04/01 07:09:41;;;;;;;1.60;0.40;;;;;;;9.85;58.78;96398.31;6141306;28;20840;-44
2023/04/01 07:13:45;;;;;;;1.97;0.70;;;;;;;10.17;56.72;96400.66;6151818;28;20243;-44
2023/04/01 07:17:00;;;;;;;1.53;0.70;;;;;;;10.14;56.99;96395.06;6147102;28;20242;-45
2023/04/01 07:20:32;;;;;;;1.73;0.67;;;;;;;10.15;56.75;96400.13;6128605;28;20240;-44
2023/04/01 07:23:44;;;;;;;1.17;0.60;;;;;;;10.31;57.89;96398.25;6130726;28;20822;-46
2023/04/01 07:27:18;;;;;;;1.37;0.53;;;;;;;10.34;56.49;96411.00;6146874;28;20329;-46
2023/04/01 07:30:24;;;;;;;0.70;0.40;;;;;;;10.64;55.93;96407.44;6130758;28;20216;-44
2023/04/01 07:33:47;;;;;;;1.73;0.63;;;;;;;10.90;54.73;96407.31;6147666;28;20246;-44
2023/04/01 07:37:01;;;;;;;1.93;0.73;;;;;;;10.88;54.98;96404.13;6151372;28;20239;-45
2023/04/01 07:40:49;;;;;;;3.07;1.50;;;;;;;10.99;55.16;96403.81;6132378;28;20246;-46
2023/04/01 07:44:23;;;;;;;2.83;0.80;;;;;;;11.06;53.89;96406.94;6129626;28;20232;-46
2023/04/01 07:47:46;;;;;;;1.50;0.60;;;;;;;11.19;52.90;96407.41;6139943;28;20327;-47
2023/04/01 07:50:56;;;;;;;0.93;0.60;;;;;;;11.30;52.75;96411.59;6151074;28;20717;-44
2023/04/01 07:54:07;;;;;;;0.80;0.50;;;;;;;11.24;53.11;96423.38;6148348;28;20628;-44
2023/04/01 07:57:38;;;;;;;2.20;0.77;;;;;;;11.28;52.46;96419.88;6163894;28;20432;-47
2023/04/01 08:00:51;;;;;;;1.10;0.57;;;;;;;11.37;53.46;96406.75;6140818;28;20228;-49
2023/04/01 08:04:15;;;;;;;1.93;0.50;;;;;;;11.68;51.85;96430.53;6137978;28;20241;-45
2023/04/01 08:07:26;;;;;;;2.33;0.67;;;;;;;11.62;52.51;96414.56;6139284;28;20332;-50
2023/04/01 08:11:21;;;;;;;1.27;0.57;;;;;;;11.90;53.20;96441.56;6145417;28;20238;-45
2023/04/01 08:14:53;;;;;;;1.77;0.50;;;;;;;11.97;51.41;96439.38;6148141;28;20867;-47
2023/04/01 08:18:32;;;;;;;1.13;0.60;;;;;;;11.88;51.48;96449.06;6144183;28;20245;-48
2023/04/01 08:21:49;;;;;;;1.30;0.50;;;;;;;11.90;50.42;96446.91;6139403;28;20331;-47
2023/04/01 08:24:53;;;;;;;1.47;0.57;;;;;;;12.04;51.15;96439.84;6150857;28;20585;-48
2023/04/01 08:28:13;;;;;;;0.33;0.30;;;;;;;12.24;50.35;96459.41;6130950;28;20244;-45
2023/04/01 08:31:24;;;;;;;0.80;0.33;;;;;;;12.36;50.19;96455.28;6147400;28;20239;-47
2023/04/01 08:34:38;;;;;;;0.40;0.40;;;;;;;12.65;50.66;96449.88;6152713;28;20748;-45
2023/04/01 08:37:48;;;;;;;0.77;0.30;;;;;;;12.63;49.75;96481.44;6132210;28;20234;-47
2023/04/01 08:41:04;;;;;;;0.87;0.40;;;;;;;12.45;49.10;96466.13;6128339;28;20684;-46
2023/04/01 08:45:00;;;;;;;1.53;0.60;;;;;;;12.36;48.09;96460.63;6145136;28;20234;-45
2023/04/01 08:48:08;;;;;;;1.80;0.40;;;;;;;12.29;49.67;96460.16;6131633;28;20627;-47
2023/04/01 08:51:32;;;;;;;0.77;0.30;;;;;;;11.96;49.64;96469.78;6133667;28;20237;-47
2023/04/01 08:55:02;;;;;;;0.87;0.30;;;;;;;12.06;49.44;96459.03;6163446;28;20237;-46
2023/04/01 08:58:47;;;;;;;1.10;0.33;;;;;;;12.31;50.03;96475.88;6147002;28;20234;-46
2023/04/01 09:02:34;;;;;;;0.50;0.40;;;;;;;12.34;49.00;96473.47;6131014;28;20752;-46
2023/04/01 09:06:11;;;;;;;0.63;0.27;;;;;;;12.26;50.57;96466.06;6145947;28;20231;-48
2023/04/01 09:09:19;;;;;;;0.37;0.20;;;;;;;13.00;48.08;96479.13;6144782;28;20709;-49
2023/04/01 09:12:30;;;;;;;1.10;0.40;;;;;;;13.00;47.64;96479.94;6154445;28;20724;-49
2023/04/01 09:15:47;;;;;;;1.37;0.50;;;;;;;13.28;49.21;96475.59;6127757;28;20238;-48
2023/04/01 09:18:49;;;;;;;1.00;0.40;;;;;;;13.05;47.03;96474.53;6140173;28;20238;-49
2023/04/01 09:21:51;;;;;;;0.50;0.30;;;;;;;12.63;49.25;96520.72;6145664;28;20241;-45
2023/04/01 09:25:15;;;;;;;0.50;0.33;;;;;;;12.59;48.89;96492.97;6159824;28;20226;-48
2023/04/01 09:28:33;;;;;;;0.83;0.50;;;;;;;12.66;49.08;96509.47;6144251;28;20240;-46
2023/04/01 09:31:45;;;;;;;0.63;0.30;;;;;;;12.49;48.80;96490.41;6146784;28;20238;-47
2023/04/01 09:35:24;;;;;;;0.30;0.27;;;;;;;12.71;47.55;96476.53;6145123;28;20708;-50
2023/04/01 09:38:38;;;;;;;0.70;0.43;;;;;;;12.62;47.82;96501.22;6142053;28;20603;-45
2023/04/01 09:41:47;;;;;;;0.53;0.33;;;;;;;12.60;47.31;96495.34;6148594;28;20649;-47
2023/04/01 09:44:59;;;;;;;0.60;0.33;;;;;;;12.32;47.68;96494.31;6129969;28;20233;-47
2023/04/01 09:48:21;;;;;;;0.30;0.30;;;;;;;11.99;47.66;96509.28;6134774;28;20252;-47
2023/04/01 09:52:19;;;;;;;0.83;0.30;;;;;;;11.88;50.29;96516.56;6145127;28;20232;-48
2023/04/01 09:55:47;;;;;;;0.30;0.30;;;;;;;11.97;49.15;96516.78;6081232;29;20291;-46
2023/04/01 09:58:55;;;;;;;1.10;0.33;;;;;;;12.40;48.41;96490.22;6084272;29;20819;-47
2023/04/01 10:02:22;;;;;;;0.33;0.27;;;;;;;12.87;46.62;96480.66;6072418;29;20279;-48
2023/04/01 10:05:43;;;;;;;1.07;0.40;;;;;;;12.96;45.91;96480.81;6080078;29;20239;-49
2023/04/01 10:09:14;;;;;;;0.47;0.40;;;;;;;13.22;47.91;96498.16;6079054;29;20242;-49
2023/04/01 10:12:31;;;;;;;0.63;0.30;;;;;;;13.18;47.14;96491.75;6081245;29;20231;-46
2023/04/01 10:16:04;;;;;;;1.17;0.40;;;;;;;12.84;45.91;96491.91;6081130;29;20827;-50
2023/04/01 10:19:39;;;;;;;0.20;0.20;;;;;;;12.44;47.81;96498.47;6078180;29;20275;-48
2023/04/01 10:22:57;;;;;;;0.40;0.30;;;;;;;12.30;48.03;96499.13;6082542;29;20243;-47
2023/04/01 10:26:21;;;;;;;1.47;0.40;;;;;;;12.26;49.31;96529.34;6064965;29;20243;-50
2023/04/01 10:30:07;;;;;;;1.27;0.40;;;;;;;12.16;48.34;96500.06;6065535;29;20242;-47
2023/04/01 10:33:46;;;;;;;0.57;0.30;;;;;;;12.36;50.50;96506.03;6137982;28;20279;-46
2023/04/01 10:36:51;;;;;;;1.40;0.30;;;;;;;12.39;46.45;96492.09;6119987;28;20325;-48
2023/04/01 10:40:29;;;;;;;0.47;0.30;;;;;;;12.29;47.16;96472.72;6130616;28;20362;-47
2023/04/01 10:44:25;;;;;;;0.50;0.33;;;;;;;12.24;47.47;96508.28;6129787;28;20234;-46
2023/04/01 10:48:01;;;;;;;1.17;0.40;;;;;;;12.46;46.36;96491.75;6149109;28;20292;-46
2023/04/01 10:51:35;;;;;;;0.30;0.30;;;;;;;12.38;48.36;96500.41;6148097;28;20330;-45
2023/04/01 10:54:49;;;;;;;0.40;0.20;;;;;;;12.51;45.97;96493.59;6150623;28;20287;-45
2023/04/01 10:58:47;;;;;;;0.40;0.30;;;;;;;12.45;48.74;96490.16;6144729;28;20263;-47
2023/04/01 11:02:42;;;;;;;1.53;0.30;;;;;;;12.51;47.34;96488.25;6148239;28;20243;-47
2023/04/01 11:06:25;;;;;;;0.43;0.30;;;;;;;12.94;46.04;96474.94;6145468;28;20241;-46
2023/04/01 11:10:02;;;;;;;0.30;0.30;;;;;;;12.70;45.68;96477.63;6119156;28;20234;-46
2023/04/01 11:13:46;;;;;;;1.30;0.30;;;;;;;12.70;45.63;96473.06;6162789;28;20229;-48
2023/04/01 11:17:08;;;;;;;0.20;0.20;;;;;;;12.88;46.68;96466.97;6135432;28;20250;-46
2023/04/01 11:20:19;;;;;;;0.30;0.30;;;;;;;13.07;45.81;96491.09;6143982;28;20246;-47
2023/04/01 11:23:58;;;;;;;0.23;0.23;;;;;;;12.93;45.16;96479.50;6144077;28;20241;-46
2023/04/01 11:27:25;;;;;;;0.73;0.30;;;;;;;12.82;46.46;96473.47;6135892;28;20248;-44
2023/04/01 11:30:58;;;;;;;0.73;0.20;;;;;;;12.81;46.34;96473.78;6143188;28;20296;-48
2023/04/01 11:34:22;;;;;;;0.23;0.23;;;;;;;13.21;44.08;96469.78;6164888;28;20248;-46
2023/04/01 11:37:37;;;;;;;0.50;0.30;;;;;;;13.44;45.12;96476.16;6147237;28;20606;-44
2023/04/01 11:41:28;;;;;;;1.63;0.30;;;;;;;13.15;42.94;96465.56;6150969;28;20218;-44
2023/04/01 11:45:29;;;;;;;0.20;0.20;;;;;;;13.35;43.22;96460.00;6151536;28;20725;-46
2023/04/01 11:49:06;;;;;;;1.23;0.30;;;;;;;13.28;42.71;96467.56;6141809;28;20230;-46
2023/04/01 11:52:28;;;;;;;0.40;0.30;;;;;;;13.24;43.75;96474.56;6168241;28;20238;-45
2023/04/01 11:56:02;;;;;;;0.60;0.20;;;;;;;13.05;43.57;96471.88;6152097;28;20396;-42
2023/04/01 11:59:13;;;;;;;0.50;0.30;;;;;;;13.09;42.53;96474.75;6155581;28;20230;-45
2023/04/01 12:02:18;;;;;;;0.20;0.20;;;;;;;12.99;43.26;96470.31;6152182;28;20236;-43
2023/04/01 12:05:28;;;;;;;0.70;0.30;;;;;;;13.25;43.29;96475.38;6146137;28;20769;-46
2023/04/01 12:09:04;;;;;;;0.37;0.27;;;;;;;13.31;42.68;96480.38;6150752;28;20596;-46
2023/04/01 12:12:32;;;;;;;2.27;0.57;;;;;;;13.46;42.16;96475.91;6146700;28;20642;-47
2023/04/01 12:16:11;;;;;;;1.10;0.30;;;;;;;13.24;42.32;96476.44;6153366;28;20268;-45
2023/04/01 12:19:32;;;;;;;0.30;0.20;;;;;;;13.33;41.79;96482.75;6151434;28;20245;-46
2023/04/01 12:23:12;;;;;;;0.53;0.40;;;;;;;13.23;42.67;96475.66;6151019;28;20274;-44
2023/04/01 12:26:36;;;;;;;0.33;0.20;;;;;;;13.13;43.22;96492.59;6144258;28;20242;-45
2023/04/01 12:30:15;;;;;;;0.27;0.27;;;;;;;13.23;42.73;96474.88;6151236;28;20257;-47
2023/04/01 12:33:52;;;;;;;0.77;0.30;;;;;;;13.20;45.34;96483.44;6145414;28;20782;-46
2023/04/01 12:37:13;;;;;;;0.83;0.30;;;;;;;13.42;43.32;96491.72;6149902;28;20352;-49
2023/04/01 12:40:35;;;;;;;0.30;0.30;;;;;;;13.32;43.53;96484.63;6153159;28;20245;-44
2023/04/01 12:43:38;;;;;;;1.30;0.40;;;;;;;13.34;42.24;96460.25;6153389;28;20377;-48
2023/04/01 12:47:05;;;;;;;0.97;0.37;;;;;;;13.31;43.50;96479.59;6151178;28;20234;-46
2023/04/01 12:50:31;;;;;;;0.60;0.37;;;;;;;13.45;41.57;96466.25;6159113;28;20241;-46
2023/04/01 12:53:48;;;;;;;0.67;0.50;;;;;;;13.45;42.41;96456.38;6152940;28;20241;-48
2023/04/01 12:57:10;;;;;;;0.30;0.30;;;;;;;13.45;44.07;96458.22;6153481;28;20288;-44
2023/04/01 13:00:46;;;;;;;1.00;0.50;;;;;;;13.56;41.49;96457.81;6150262;28;20242;-46
2023/04/01 13:04:21;;;;;;;0.73;0.30;;;;;;;13.44;41.94;96470.81;6153168;28;20603;-45
2023/04/01 13:07:38;;;;;;;0.50;0.50;;;;;;;13.17;42.79;96464.22;6167448;28;20688;-45
2023/04/01 13:10:51;;;;;;;1.17;0.30;;;;;;;13.20;42.58;96448.66;6148530;28;20239;-47
2023/04/01 13:14:23;;;;;;;0.40;0.30;;;;;;;13.23;42.41;96462.28;6152516;28;20935;-43
2023/04/01 13:17:50;;;;;;;0.23;0.20;;;;;;;13.09;42.64;96443.44;6153413;28;20244;-45
2023/04/01 13:21:15;;;;;;;0.30;0.30;;;;;;;13.42;41.95;96447.03;6162653;28;20315;-47
2023/04/01 13:24:50;;;;;;;1.00;0.30;;;;;;;13.43;42.18;96445.16;6151522;28;20282;-48
2023/04/01 13:28:01;;;;;;;0.60;0.60;;;;;;;13.78;42.27;96445.69;6147847;28;20226;-43
2023/04/01 13:31:12;;;;;;;1.07;0.40;;;;;;;14.02;39.51;96457.06;6144528;28;20316;-43
2023/04/01 13:34:47;;;;;;;1.53;0.40;;;;;;;14.28;38.86;96453.94;6144758;28;20249;-45
2023/04/01 13:38:25;;;;;;;0.20;0.20;;;;;;;14.10;41.66;96444.91;6148588;28;20226;-44
2023/04/01 13:41:39;;;;;;;0.30;0.30;;;;;;;14.00;39.52;96451.22;6149633;28;20238;-45
2023/04/01 13:45:09;;;;;;;0.33;0.20;;;;;;;13.84;38.63;96449.88;6150571;28;20592;-44
2023/04/01 13:48:32;;;;;;;0.43;0.37;;;;;;;14.00;38.49;96434.38;6146567;28;20231;-44
2023/04/01 13:52:02;;;;;;;0.70;0.40;;;;;;;13.95;38.17;96435.25;6141589;28;20281;-50
2023/04/01 13:55:30;;;;;;;0.87;0.50;;;;;;;14.32;36.93;96428.97;6149320;28;20322;-44
2023/04/01 13:58:39;;;;;;;0.30;0.20;;;;;;;14.16;38.94;96441.03;6148980;28;20234;-46
2023/04/01 14:01:49;;;;;;;0.60;0.30;;;;;;;14.55;37.75;96421.06;6144033;28;20603;-45
2023/04/01 14:05:28;;;;;;;0.40;0.40;;;;;;;14.52;36.74;96422.44;6149082;28;20238;-44
2023/04/01 14:08:46;;;;;;;1.30;0.40;;;;;;;14.55;38.12;96439.84;6143054;28;20231;-45
2023/04/01 14:12:03;;;;;;;2.20;0.30;;;;;;;14.55;37.49;96434.47;6145229;28;20604;-48
2023/04/01 14:15:35;;;;;;;0.50;0.30;;;;;;;14.38;37.01;96424.28;6145640;28;20214;-46
2023/04/01 14:18:53;;;;;;;2.10;0.40;;;;;;;14.30;37.53;96427.69;6143332;28;20245;-47
2023/04/01 14:21:59;;;;;;;0.40;0.37;;;;;;;14.18;38.17;96442.31;6149484;28;20234;-44
2023/04/01 14:25:23;;;;;;;0.60;0.30;;;;;;;14.16;38.19;96433.81;6144584;28;20366;-49
2023/04/01 14:28:28;;;;;;;0.97;0.30;;;;;;;13.97;38.75;96440.31;6129216;28;20325;-48
2023/04/01 14:32:07;;;;;;;0.43;0.30;;;;;;;13.78;39.34;96443.03;6144099;28;20233;-47
2023/04/01 14:35:25;;;;;;;1.90;0.33;;;;;;;13.94;39.01;96444.38;6142030;28;20308;-46
2023/04/01 14:38:35;;;;;;;0.80;0.30;;;;;;;13.91;38.64;96434.25;6148470;28;20610;-45
2023/04/01 14:41:54;;;;;;;2.53;0.50;;;;;;;13.85;40.10;96452.28;6129191;28;20254;-47
2023/04/01 14:45:47;;;;;;;0.40;0.20;;;;;;;14.00;38.63;96429.81;6147208;28;20247;-45
2023/04/01 14:48:57;;;;;;;1.70;0.30;;;;;;;14.03;39.28;96439.91;6133858;28;20812;-47
2023/04/01 14:52:24;;;;;;;1.33;0.47;;;;;;;13.83;39.92;96438.38;6142965;28;20241;-45
2023/04/01 14:55:44;;;;;;;1.60;0.50;;;;;;;13.96;39.94;96434.16;6154595;28;20230;-48
2023/04/01 14:58:57;;;;;;;0.30;0.20;;;;;;;13.85;38.68;96441.56;6148553;28;20235;-46
2023/04/01 15:02:26;;;;;;;0.53;0.40;;;;;;;13.65;39.56;96444.56;6145501;28;20237;-59
2023/04/01 15:06:16;;;;;;;0.70;0.40;;;;;;;13.50;39.92;96458.19;6150744;28;20244;-58
2023/04/01 15:10:19;;;;;;;2.80;0.37;;;;;;;13.53;39.36;96460.25;6152244;28;20288;-57
2023/04/01 15:13:33;;;;;;;0.93;0.33;;;;;;;13.38;40.35;96464.75;6122626;28;20233;-57
2023/04/01 15:17:09;;;;;;;1.17;0.40;;;;;;;13.49;41.92;96465.41;6150779;28;20290;-57
2023/04/01 15:20:31;;;;;;;0.30;0.30;;;;;;;13.21;43.33;96456.41;6168325;28;21105;-58
2023/04/01 15:23:45;;;;;;;1.70;0.30;;;;;;;13.24;43.00;96457.72;6157737;28;20400;-57
2023/04/01 15:26:55;;;;;;;0.30;0.30;;;;;;;13.17;44.13;96474.91;6138899;28;20249;-60
2023/04/01 15:30:17;;;;;;;0.33;0.20;;;;;;;12.74;45.51;96442.03;6144995;28;20719;-57